Buoy 51627

sailwx.info

Track history (hours):
 
Tides and Currents Weather Stations Pressure Air Temp Water Temp Dewpoint Dewpoint Depression Visibility Wind Speed Wind Dir Waves Ship Positions

Drifting buoy 51627

Last reported at 2016-Feb-09 19:00 UTC. Time now 2016-Feb-10 04:46 UTC.
Position N 12°42' E 160°26'.

Water temperature 26.8 ° C

Date/timePositionNaut miles runAvg speedWind from/ knotsBaromVisibWave heightAir tempDewpointWater temp
2016-Feb-09 19:00N 12°42' E 160°26'1 0.1 26.8
2016-Feb-09 15:00N 12°43' E 160°26'2 0.5 26.8
2016-Feb-09 11:00N 12°43' E 160°28'1 0.2 26.8
2016-Feb-09 07:00N 12°43' E 160°29'2 0.6 26.9
2016-Feb-09 04:00N 12°42' E 160°30'0 0.0 26.9
2016-Feb-09 03:00N 12°42' E 160°30'2 0.6 26.9
2016-Feb-08 23:00N 12°41' E 160°32'0 0.0 26.8
2016-Feb-08 22:00N 12°41' E 160°32'1 0.4 26.8
2016-Feb-08 20:00N 12°40' E 160°33'0 0.0 26.8
2016-Feb-08 19:00N 12°40' E 160°33'4 1.5 26.8
2016-Feb-08 16:00N 12°38' E 160°37'1 0.1 26.8
2016-Feb-08 10:00N 12°38' E 160°37'2 0.8 26.8
2016-Feb-08 07:00N 12°37' E 160°40'3 0.7 26.8
2016-Feb-08 03:00N 12°37' E 160°43'0 0.0 26.9
2016-Feb-08 02:00N 12°37' E 160°43'4 1.3 26.8
2016-Feb-07 23:00N 12°38' E 160°46'2 0.5 26.8
2016-Feb-07 19:00N 12°39' E 160°48'3 1.0 26.8
2016-Feb-07 16:00N 12°40' E 160°51'0 0.0 26.8
2016-Feb-07 15:00N 12°40' E 160°51'0 0.0 26.8
2016-Feb-07 11:00N 12°40' E 160°51'0 0.5 26.8
2016-Feb-07 10:00N 12°40' E 160°51'1 0.6 26.8
2016-Feb-07 08:00N 12°40' E 160°53'2 0.7 26.9
2016-Feb-07 05:00N 12°39' E 160°54'0 0.0 26.9
2016-Feb-07 03:00N 12°39' E 160°54'0 0.0 26.9
2016-Feb-07 02:00N 12°39' E 160°54'2 1.0 26.9
2016-Feb-07 00:00N 12°38' E 160°56'1 0.6 26.9
2016-Feb-06 23:00N 12°37' E 160°56'0 0.0 26.8
2016-Feb-06 21:00N 12°37' E 160°56'1 0.7 26.8
2016-Feb-06 19:00N 12°37' E 160°58'1 1.2 26.8
2016-Feb-06 18:00N 12°36' E 160°58'1 1.3 26.8
2016-Feb-06 17:00N 12°35' E 160°59'2 1.9 26.8
2016-Feb-06 16:00N 12°34' E 161°01'0 0.0 26.8
2016-Feb-06 15:00N 12°34' E 161°01'3 2.5 26.9
2016-Feb-06 14:00N 12°33' E 161°03'1 0.4 26.9
2016-Feb-06 11:00N 12°33' E 161°04'3 0.7 26.9
2016-Feb-06 07:00N 12°32' E 161°07'4 0.9 26.9
2016-Feb-06 03:00N 12°31' E 161°11'3 0.7 26.9
2016-Feb-05 23:00N 12°31' E 161°14'3 1.0 26.9
2016-Feb-05 20:00N 12°32' E 161°17'1 1.1 26.9
2016-Feb-05 19:00N 12°32' E 161°18'1 1.3 26.9
2016-Feb-05 18:00N 12°33' E 161°19'3 0.3 26.9
2016-Feb-05 09:00N 12°34' E 161°22'0 0.1 26.9
2016-Feb-05 07:00N 12°34' E 161°21'4 0.5 26.9
2016-Feb-05 00:00N 12°33' E 161°25'0 0.0 26.9
2016-Feb-04 23:00N 12°33' E 161°25'1 0.3 26.9
2016-Feb-04 20:00N 12°33' E 161°26'3 2.7 26.9
2016-Feb-04 19:00N 12°32' E 161°28'0 0.1 26.8
2016-Feb-04 16:00N 12°32' E 161°29'3 1.7 26.9
2016-Feb-04 14:00N 12°31' E 161°32'1 0.2 26.9
2016-Feb-04 11:00N 12°31' E 161°33'0 0.4 26.9
2016-Feb-04 10:00N 12°31' E 161°33'1 1.2 26.9
2016-Feb-04 09:00N 12°30' E 161°34'1 0.6 26.9
2016-Feb-04 08:00N 12°30' E 161°34'1 0.7 26.9
2016-Feb-04 07:00N 12°30' E 161°35'3 1.0 26.9
2016-Feb-04 04:00N 12°30' E 161°38'6 0.7 27.0
2016-Feb-03 20:00N 12°31' E 161°43'1 1.0 26.8
2016-Feb-03 19:00N 12°32' E 161°44'5 0.5 26.8
2016-Feb-03 09:00N 12°34' E 161°48'1 0.1 26.9
2016-Feb-03 02:00N 12°35' E 161°49'4 0.6 26.9
2016-Feb-02 20:00N 12°33' E 161°52'1 0.4 26.8
2016-Feb-02 17:00N 12°33' E 161°53'1 0.5 26.8
2016-Feb-02 15:00N 12°32' E 161°54'2 0.5 26.8
2016-Feb-02 11:00N 12°32' E 161°56'1 0.9 26.8
2016-Feb-02 10:00N 12°32' E 161°57'0 0.0 26.9
2016-Feb-02 09:00N 12°32' E 161°57'4 0.7 26.9
2016-Feb-02 04:00N 12°31' E 162°01'0 0.0 26.9
2016-Feb-02 03:00N 12°31' E 162°01'8 0.9 26.9
2016-Feb-01 19:00N 12°30' E 162°09'3 0.8 26.8
2016-Feb-01 15:00N 12°31' E 162°12'5 1.0 26.9
2016-Feb-01 10:00N 12°33' E 162°16'2 0.8 26.9
2016-Feb-01 08:00N 12°34' E 162°18'1 0.5 26.9
2016-Feb-01 07:00N 12°34' E 162°18'1 0.6 27.0
2016-Feb-01 06:00N 12°35' E 162°19'1 1.0 27.0
2016-Feb-01 05:00N 12°35' E 162°20'1 0.8 27.0
2016-Feb-01 04:00N 12°34' E 162°20'3 0.6 27.1
2016-Jan-31 23:00N 12°34' E 162°23'0 0.0 26.9
2016-Jan-31 22:00N 12°34' E 162°23'0 0.2 26.9
2016-Jan-31 20:00N 12°34' E 162°24'0 0.2 26.8
2016-Jan-31 19:00N 12°34' E 162°24'3 0.8 26.8
2016-Jan-31 15:00N 12°32' E 162°27'2 0.3 26.8
2016-Jan-31 10:00N 12°31' E 162°27'3 0.9 26.9
2016-Jan-31 07:00N 12°31' E 162°30'3 0.7 26.9
2016-Jan-31 03:00N 12°30' E 162°33'0 0.0 26.9
2016-Jan-31 02:00N 12°30' E 162°33'5 1.6 26.9
2016-Jan-30 23:00N 12°29' E 162°38'0 0.0 26.9
2016-Jan-30 22:00N 12°29' E 162°38'1 1.2 26.9
2016-Jan-30 21:00N 12°30' E 162°39'1 1.1 26.8
2016-Jan-30 20:00N 12°30' E 162°40'   26.8
Track history (hours):
 
Tides and Currents Weather Stations Pressure Air Temp Water Temp Dewpoint Dewpoint Depression Visibility Wind Speed Wind Dir Waves Ship Positions

Drifting buoy 51627

Last reported at 2016-Feb-09 19:00 UTC. Time now 2016-Feb-10 04:46 UTC.
Position N 12°42' E 160°26'.

Water temperature 26.8 ° C

Date/timePositionNaut miles runAvg speedWind from/ knotsBaromVisibWave heightAir tempDewpointWater temp
2016-Feb-09 19:00N 12°42' E 160°26'1 0.1 26.8
2016-Feb-09 15:00N 12°43' E 160°26'2 0.5 26.8
2016-Feb-09 11:00N 12°43' E 160°28'1 0.2 26.8
2016-Feb-09 07:00N 12°43' E 160°29'2 0.6 26.9
2016-Feb-09 04:00N 12°42' E 160°30'0 0.0 26.9
2016-Feb-09 03:00N 12°42' E 160°30'2 0.6 26.9
2016-Feb-08 23:00N 12°41' E 160°32'0 0.0 26.8
2016-Feb-08 22:00N 12°41' E 160°32'1 0.4 26.8
2016-Feb-08 20:00N 12°40' E 160°33'0 0.0 26.8
2016-Feb-08 19:00N 12°40' E 160°33'4 1.5 26.8
2016-Feb-08 16:00N 12°38' E 160°37'1 0.1 26.8
2016-Feb-08 10:00N 12°38' E 160°37'2 0.8 26.8
2016-Feb-08 07:00N 12°37' E 160°40'3 0.7 26.8
2016-Feb-08 03:00N 12°37' E 160°43'0 0.0 26.9
2016-Feb-08 02:00N 12°37' E 160°43'4 1.3 26.8
2016-Feb-07 23:00N 12°38' E 160°46'2 0.5 26.8
2016-Feb-07 19:00N 12°39' E 160°48'3 1.0 26.8
2016-Feb-07 16:00N 12°40' E 160°51'0 0.0 26.8
2016-Feb-07 15:00N 12°40' E 160°51'0 0.0 26.8
2016-Feb-07 11:00N 12°40' E 160°51'0 0.5 26.8
2016-Feb-07 10:00N 12°40' E 160°51'1 0.6 26.8
2016-Feb-07 08:00N 12°40' E 160°53'2 0.7 26.9
2016-Feb-07 05:00N 12°39' E 160°54'0 0.0 26.9
2016-Feb-07 03:00N 12°39' E 160°54'0 0.0 26.9
2016-Feb-07 02:00N 12°39' E 160°54'2 1.0 26.9
2016-Feb-07 00:00N 12°38' E 160°56'1 0.6 26.9
2016-Feb-06 23:00N 12°37' E 160°56'0 0.0 26.8
2016-Feb-06 21:00N 12°37' E 160°56'1 0.7 26.8
2016-Feb-06 19:00N 12°37' E 160°58'1 1.2 26.8
2016-Feb-06 18:00N 12°36' E 160°58'1 1.3 26.8
2016-Feb-06 17:00N 12°35' E 160°59'2 1.9 26.8
2016-Feb-06 16:00N 12°34' E 161°01'0 0.0 26.8
2016-Feb-06 15:00N 12°34' E 161°01'3 2.5 26.9
2016-Feb-06 14:00N 12°33' E 161°03'1 0.4 26.9
2016-Feb-06 11:00N 12°33' E 161°04'3 0.7 26.9
2016-Feb-06 07:00N 12°32' E 161°07'4 0.9 26.9
2016-Feb-06 03:00N 12°31' E 161°11'3 0.7 26.9
2016-Feb-05 23:00N 12°31' E 161°14'3 1.0 26.9
2016-Feb-05 20:00N 12°32' E 161°17'1 1.1 26.9
2016-Feb-05 19:00N 12°32' E 161°18'1 1.3 26.9
2016-Feb-05 18:00N 12°33' E 161°19'3 0.3 26.9
2016-Feb-05 09:00N 12°34' E 161°22'0 0.1 26.9
2016-Feb-05 07:00N 12°34' E 161°21'4 0.5 26.9
2016-Feb-05 00:00N 12°33' E 161°25'0 0.0 26.9
2016-Feb-04 23:00N 12°33' E 161°25'1 0.3 26.9
2016-Feb-04 20:00N 12°33' E 161°26'3 2.7 26.9
2016-Feb-04 19:00N 12°32' E 161°28'0 0.1 26.8
2016-Feb-04 16:00N 12°32' E 161°29'3 1.7 26.9
2016-Feb-04 14:00N 12°31' E 161°32'1 0.2 26.9
2016-Feb-04 11:00N 12°31' E 161°33'0 0.4 26.9
2016-Feb-04 10:00N 12°31' E 161°33'1 1.2 26.9
2016-Feb-04 09:00N 12°30' E 161°34'1 0.6 26.9
2016-Feb-04 08:00N 12°30' E 161°34'1 0.7 26.9
2016-Feb-04 07:00N 12°30' E 161°35'3 1.0 26.9
2016-Feb-04 04:00N 12°30' E 161°38'6 0.7 27.0
2016-Feb-03 20:00N 12°31' E 161°43'1 1.0 26.8
2016-Feb-03 19:00N 12°32' E 161°44'5 0.5 26.8
2016-Feb-03 09:00N 12°34' E 161°48'1 0.1 26.9
2016-Feb-03 02:00N 12°35' E 161°49'4 0.6 26.9
2016-Feb-02 20:00N 12°33' E 161°52'1 0.4 26.8
2016-Feb-02 17:00N 12°33' E 161°53'1 0.5 26.8
2016-Feb-02 15:00N 12°32' E 161°54'2 0.5 26.8
2016-Feb-02 11:00N 12°32' E 161°56'1 0.9 26.8
2016-Feb-02 10:00N 12°32' E 161°57'0 0.0 26.9
2016-Feb-02 09:00N 12°32' E 161°57'4 0.7 26.9
2016-Feb-02 04:00N 12°31' E 162°01'0 0.0 26.9
2016-Feb-02 03:00N 12°31' E 162°01'8 0.9 26.9
2016-Feb-01 19:00N 12°30' E 162°09'3 0.8 26.8
2016-Feb-01 15:00N 12°31' E 162°12'5 1.0 26.9
2016-Feb-01 10:00N 12°33' E 162°16'2 0.8 26.9
2016-Feb-01 08:00N 12°34' E 162°18'1 0.5 26.9
2016-Feb-01 07:00N 12°34' E 162°18'1 0.6 27.0
2016-Feb-01 06:00N 12°35' E 162°19'1 1.0 27.0
2016-Feb-01 05:00N 12°35' E 162°20'1 0.8 27.0
2016-Feb-01 04:00N 12°34' E 162°20'3 0.6 27.1
2016-Jan-31 23:00N 12°34' E 162°23'0 0.0 26.9
2016-Jan-31 22:00N 12°34' E 162°23'0 0.2 26.9
2016-Jan-31 20:00N 12°34' E 162°24'0 0.2 26.8
2016-Jan-31 19:00N 12°34' E 162°24'3 0.8 26.8
2016-Jan-31 15:00N 12°32' E 162°27'2 0.3 26.8
2016-Jan-31 10:00N 12°31' E 162°27'3 0.9 26.9
2016-Jan-31 07:00N 12°31' E 162°30'3 0.7 26.9
2016-Jan-31 03:00N 12°30' E 162°33'0 0.0 26.9
2016-Jan-31 02:00N 12°30' E 162°33'5 1.6 26.9
2016-Jan-30 23:00N 12°29' E 162°38'0 0.0 26.9
2016-Jan-30 22:00N 12°29' E 162°38'1 1.2 26.9
2016-Jan-30 21:00N 12°30' E 162°39'1 1.1 26.8
2016-Jan-30 20:00N 12°30' E 162°40'   26.8

Dump ship's entire track history